Portada
METAR-TAF:

METAR-TAF

Aeroports :

Manado, Indonèsia

latitud: 01-32N, longitud: 124-55E, altitud: 80 m

Observació

L'informe es va fer fa 35 minuts, a les 11:30 UTC
Vent 1 kt amb direcció variable
Temperatura 26°C
Humitat 89%
Pressió 1013 hPa
Visibilitat: 9000 m
Núvols disperses a una alçada de 2100 ft

METAR: WAMM 251130Z VRB01KT 9000 SCT021 26/24 Q1013 NOSIG

Hora: 19:05 (12:05 UTC)

Pronòstic

L'informe es va fer fa 1 hora i 5 minuts, a les 11:00 UTC
Pronòstic vàlid del 25 a les 12 UTC al 26 a les 18 UTC
Vent 3 kt amb direcció variable
Visibilitat: 9000 m
Núvols disperses a una alçada de 2000 ft
Evolucionant progressivament
l' 26 a les 00 UTC al 26 a les 02 UTC
Vent 6 kt del Nord-Est

TAF: WAMM 251100Z 2512/2618 VRB03KT 9000 SCT020 BECMG 2600/2602 04006KT

Observacions i pronòstics meteorològics de més de 4000 aeroports (METAR i TAF).

Les estacions disponibles són els punts grocs i vermells al mapa.

Posi el ratolí al punt desitjat per veure el nom de l'estació.

Feu clic per veure les observacions i els pronòstics meteorològics.

Per canviar el mapa: feu clic els botons verds amb una creu de color negre per apropar; al botó verd amb un guió per allunyar la imatge; o en les fletxes verdes per a mapes adjacents.


METAR-TAF: